Agrolandia, Brazil
Current Conditions -  °F | °C
As of 11:00 PM on Saturday 22 Nov 2014 (Local Time) from SBFL Reporting Station
Scattered Clouds Scattered Clouds  
Wind Chill: 75°   Ceiling: Unl
Heat Index: 75°   Visibility: 6mi
Dew Point: 63°   Wind: 9mph
Humidity: 65%   Direction: 190°S
Pressure: 29.85"   Gusts: NA
Location:  27.41°S, 49.83°W
Report Text: SBFL 230100Z 19008KT 9999 SCT020 24/17 Q1011
Loading
Personal Weather Stations






























Interactive Weather Map New forecast layout! Learn more

10-Day Weather Forecast

Advertisements
Track Severe Weather on mobile